Time;durP1;ratioP1;P1;durP2;ratioP2;P2;SDS_P1;SDS_P2;PMS_P1;PMS_P2;Temp;Humidity;BMP_temperature;BMP_pressure;BME280_temperature;BME280_humidity;BME280_pressure;Samples;Min_cycle;Max_cycle;Signal;HPM_P1;HPM_P2
2024/02/15 00:00:16;;;;;;;2.40;1.83;;;;;;;9.82;100.00;101176.81;6096921;23;20359;-68
2024/02/15 00:02:47;;;;;;;2.60;1.83;;;;;;;9.78;100.00;101175.50;6097674;23;20347;-69
2024/02/15 00:05:16;;;;;;;2.37;1.77;;;;;;;9.78;100.00;101177.38;6097361;23;20358;-68
2024/02/15 00:07:48;;;;;;;2.40;2.20;;;;;;;9.79;100.00;101171.78;6096671;23;20404;-69
2024/02/15 00:10:17;;;;;;;2.00;1.90;;;;;;;9.73;100.00;101169.81;6097092;23;20775;-69
2024/02/15 00:12:46;;;;;;;3.67;3.17;;;;;;;9.80;100.00;101175.31;6097122;23;20387;-69
2024/02/15 00:15:15;;;;;;;2.60;2.23;;;;;;;9.79;100.00;101174.47;6097189;23;20370;-68
2024/02/15 00:17:44;;;;;;;2.07;1.77;;;;;;;9.88;100.00;101172.50;6096607;23;20496;-69
2024/02/15 00:20:14;;;;;;;2.67;2.27;;;;;;;9.91;100.00;101167.56;6097032;23;20386;-69
2024/02/15 00:23:07;;;;;;;2.07;1.77;;;;;;;9.85;100.00;101170.19;6101800;23;20372;-68
2024/02/15 00:25:36;;;;;;;2.73;2.50;;;;;;;9.79;100.00;101173.63;6100390;23;20357;-68
2024/02/15 00:28:05;;;;;;;3.73;2.43;;;;;;;9.78;100.00;101172.78;6097856;23;20411;-69
2024/02/15 00:30:34;;;;;;;2.60;2.23;;;;;;;9.93;100.00;101173.59;6096945;23;20420;-67
2024/02/15 00:33:03;;;;;;;2.37;1.93;;;;;;;9.93;100.00;101168.19;6097179;23;20783;-69
2024/02/15 00:35:35;;;;;;;2.37;2.17;;;;;;;9.85;100.00;101170.19;6097010;23;20388;-68
2024/02/15 00:38:05;;;;;;;2.00;1.87;;;;;;;9.80;100.00;101162.63;6096792;23;20436;-68
2024/02/15 00:40:34;;;;;;;2.67;1.53;;;;;;;9.87;100.00;101168.97;6072110;23;20458;-69
2024/02/15 00:43:03;;;;;;;2.70;2.50;;;;;;;9.73;100.00;101169.81;6096669;23;20936;-68
2024/02/15 00:45:33;;;;;;;3.10;2.20;;;;;;;9.78;100.00;101170.09;6096719;23;20384;-68
2024/02/15 00:48:02;;;;;;;2.90;2.10;;;;;;;9.81;100.00;101172.44;6096864;23;20821;-68
2024/02/15 00:50:33;;;;;;;2.43;1.63;;;;;;;9.79;100.00;101174.47;6097084;23;20399;-69
2024/02/15 00:53:01;;;;;;;3.33;3.03;;;;;;;9.87;100.00;101174.38;6097056;23;20385;-68
2024/02/15 00:55:30;;;;;;;4.33;2.63;;;;;;;9.96;100.00;101173.22;6096430;23;20423;-67
2024/02/15 00:57:59;;;;;;;2.67;1.90;;;;;;;9.98;100.00;101173.03;6096494;23;20538;-68
2024/02/15 01:00:28;;;;;;;1.97;1.27;;;;;;;9.79;100.00;101174.47;6096745;23;20499;-65
2024/02/15 01:02:57;;;;;;;2.50;1.80;;;;;;;9.98;100.00;101173.03;6096736;23;20366;-68
2024/02/15 01:05:26;;;;;;;1.40;1.30;;;;;;;9.88;100.00;101165.22;6096748;23;20463;-68
2024/02/15 01:07:57;;;;;;;2.40;2.20;;;;;;;9.91;100.00;101167.56;6096675;23;20946;-68
2024/02/15 01:10:26;;;;;;;4.60;3.40;;;;;;;9.79;100.00;101171.78;6097181;23;20765;-68
2024/02/15 01:12:55;;;;;;;3.70;2.73;;;;;;;9.94;100.00;101169.03;6096625;23;20410;-68
2024/02/15 01:15:24;;;;;;;2.30;1.90;;;;;;;9.86;100.00;101169.16;6096666;23;20373;-67
2024/02/15 01:17:52;;;;;;;2.70;2.00;;;;;;;9.92;100.00;101169.22;6096192;23;20435;-69
2024/02/15 01:20:22;;;;;;;2.47;2.20;;;;;;;9.90;100.00;101165.88;6096395;23;20405;-67
2024/02/15 01:22:51;;;;;;;6.13;3.33;;;;;;;9.75;100.00;101164.25;6096463;23;20915;-67
2024/02/15 01:25:21;;;;;;;2.60;2.40;;;;;;;9.83;100.00;101164.94;6096825;23;20861;-67
2024/02/15 01:27:50;;;;;;;3.53;2.27;;;;;;;9.72;100.00;101165.47;6096174;23;20819;-69
2024/02/15 01:30:19;;;;;;;3.17;2.33;;;;;;;9.81;100.00;101158.91;6096564;23;20471;-68
2024/02/15 01:32:48;;;;;;;2.53;2.33;;;;;;;9.86;100.00;101169.16;6096526;23;20717;-68
2024/02/15 01:35:17;;;;;;;2.27;1.60;;;;;;;9.83;100.00;101167.66;6096780;23;20399;-68
2024/02/15 01:37:46;;;;;;;2.93;2.27;;;;;;;9.99;100.00;101172.84;6070801;23;20451;-67
2024/02/15 01:40:16;;;;;;;2.60;1.73;;;;;;;10.02;100.00;101168.94;6096361;23;20422;-68
2024/02/15 01:42:49;;;;;;;3.50;3.13;;;;;;;9.91;100.00;101167.56;6096418;23;20407;-66
2024/02/15 01:45:19;;;;;;;1.83;1.73;;;;;;;10.04;100.00;101167.69;6096698;23;20906;-69
2024/02/15 01:47:48;;;;;;;3.10;2.80;;;;;;;9.95;100.00;101165.31;6097076;23;20382;-68
2024/02/15 01:50:19;;;;;;;1.27;1.17;;;;;;;10.08;100.00;101161.88;6097724;23;20434;-67
2024/02/15 01:52:50;;;;;;;4.93;4.13;;;;;;;10.06;100.00;101163.97;6096706;23;20347;-67
2024/02/15 01:55:20;;;;;;;3.13;2.20;;;;;;;9.94;100.00;101161.75;6096493;23;20383;-69
2024/02/15 01:57:50;;;;;;;2.20;2.00;;;;;;;9.95;100.00;101157.19;6096730;23;20490;-68
2024/02/15 02:00:20;;;;;;;2.83;2.63;;;;;;;9.86;100.00;101152.94;6099248;23;20358;-69
2024/02/15 02:02:49;;;;;;;2.50;2.30;;;;;;;9.89;100.00;101147.97;6099047;23;20380;-67
2024/02/15 02:05:18;;;;;;;3.20;2.00;;;;;;;9.91;100.00;101151.34;6098862;23;20764;-68
2024/02/15 02:07:47;;;;;;;2.93;2.50;;;;;;;9.94;100.00;101150.94;6097746;23;20393;-67
2024/02/15 02:10:17;;;;;;;3.03;2.37;;;;;;;9.91;100.00;101145.09;6099039;23;20855;-69
2024/02/15 02:12:46;;;;;;;2.90;2.00;;;;;;;9.92;100.00;101146.78;6071023;23;20615;-66
2024/02/15 02:15:17;;;;;;;1.73;1.43;;;;;;;9.87;100.00;101149.22;6096860;23;20355;-68
2024/02/15 02:17:50;;;;;;;3.23;2.93;;;;;;;9.91;100.00;101145.94;6096931;23;20478;-67
2024/02/15 02:20:19;;;;;;;3.03;2.40;;;;;;;10.00;100.00;101149.34;6097035;23;20376;-68
2024/02/15 02:22:51;;;;;;;3.57;2.57;;;;;;;9.98;100.00;101149.53;6096993;23;20841;-67
2024/02/15 02:25:22;;;;;;;2.90;2.33;;;;;;;9.94;100.00;101145.53;6097087;23;20379;-69
2024/02/15 02:27:52;;;;;;;3.23;2.93;;;;;;;10.01;100.00;101151.88;6100803;23;20398;-68
2024/02/15 02:30:23;;;;;;;4.67;2.63;;;;;;;10.01;100.00;101145.63;6099546;23;20427;-67
2024/02/15 02:32:51;;;;;;;6.30;3.57;;;;;;;10.00;100.00;101149.34;6098084;23;20404;-67
2024/02/15 02:35:20;;;;;;;4.93;3.10;;;;;;;9.99;100.00;101151.22;6098533;23;20376;-68
2024/02/15 02:37:49;;;;;;;3.33;3.00;;;;;;;9.92;100.00;101146.78;6097949;23;20410;-67
2024/02/15 02:40:18;;;;;;;2.60;2.20;;;;;;;9.97;100.00;101144.34;6098236;23;20698;-69
2024/02/15 02:42:52;;;;;;;4.43;3.20;;;;;;;10.02;100.00;101144.59;6098312;23;20384;-67
2024/02/15 02:45:22;;;;;;;4.17;2.93;;;;;;;10.02;100.00;101148.09;6098034;23;20375;-68
2024/02/15 02:47:52;;;;;;;4.13;2.50;;;;;;;10.14;100.00;101147.59;6097929;23;20814;-68
2024/02/15 02:50:23;;;;;;;8.67;3.33;;;;;;;10.09;100.00;101147.34;6097846;23;20378;-69
2024/02/15 02:52:52;;;;;;;8.90;2.67;;;;;;;10.16;100.00;101148.28;6098304;23;20372;-67
2024/02/15 02:55:21;;;;;;;4.20;3.60;;;;;;;10.19;100.00;101147.91;6098012;23;20439;-68
2024/02/15 02:57:52;;;;;;;3.43;3.10;;;;;;;10.14;100.00;101155.72;6097786;23;20890;-67
2024/02/15 03:00:22;;;;;;;4.50;2.70;;;;;;;10.08;100.00;101148.38;6097780;23;20400;-67
2024/02/15 03:02:51;;;;;;;4.47;2.90;;;;;;;10.08;100.00;101151.91;6097641;23;20359;-68
2024/02/15 03:05:21;;;;;;;5.10;3.67;;;;;;;10.13;100.00;101143.22;6097940;23;20413;-69
2024/02/15 03:07:51;;;;;;;3.60;2.20;;;;;;;10.30;100.00;101153.63;6097670;23;20404;-69
2024/02/15 03:10:20;;;;;;;5.70;2.50;;;;;;;10.31;100.00;101149.06;6097740;23;20789;-69
2024/02/15 03:12:49;;;;;;;6.23;3.90;;;;;;;10.18;100.00;101143.50;6097460;23;20429;-68
2024/02/15 03:15:19;;;;;;;2.97;2.53;;;;;;;10.07;100.00;101141.31;6097677;23;20410;-69
2024/02/15 03:17:49;;;;;;;4.10;2.30;;;;;;;10.02;100.00;101142.69;6097435;23;20408;-67
2024/02/15 03:20:23;;;;;;;3.50;2.30;;;;;;;10.09;100.00;101148.19;6097726;23;20380;-69
2024/02/15 03:22:55;;;;;;;4.20;3.20;;;;;;;10.09;100.00;101142.78;6097713;23;20354;-66
2024/02/15 03:25:24;;;;;;;3.23;2.20;;;;;;;10.13;100.00;101143.22;6097321;23;20350;-66
2024/02/15 03:27:55;;;;;;;4.97;3.70;;;;;;;10.23;100.00;101141.91;6097224;23;20397;-66
2024/02/15 03:30:29;;;;;;;4.37;3.70;;;;;;;10.20;100.00;101149.59;6097304;23;20380;-68
2024/02/15 03:32:58;;;;;;;5.00;3.63;;;;;;;10.24;100.00;101145.44;6097615;23;20427;-68
2024/02/15 03:35:31;;;;;;;5.77;3.70;;;;;;;10.24;100.00;101142.75;6097590;23;20487;-68
2024/02/15 03:38:00;;;;;;;6.73;4.50;;;;;;;10.27;100.00;101145.06;6097316;23;20382;-68
2024/02/15 03:40:30;;;;;;;4.70;3.33;;;;;;;10.12;100.00;101150.50;6096953;23;20490;-68
2024/02/15 03:43:00;;;;;;;4.57;4.17;;;;;;;10.11;100.00;101151.53;6097562;23;20379;-67
2024/02/15 03:45:30;;;;;;;6.03;4.53;;;;;;;10.12;100.00;101149.69;6097531;23;20366;-68
2024/02/15 03:47:59;;;;;;;2.50;2.23;;;;;;;10.20;100.00;101155.81;6097172;23;20407;-68
2024/02/15 03:50:28;;;;;;;4.40;4.00;;;;;;;10.20;100.00;101157.69;6096740;23;20399;-68
2024/02/15 03:52:59;;;;;;;3.70;2.80;;;;;;;10.21;100.00;101156.66;6097397;23;20388;-68
2024/02/15 03:55:47;;;;;;;3.73;3.23;;;;;;;10.25;100.00;101147.13;6097346;23;20424;-69
2024/02/15 03:58:16;;;;;;;4.13;2.73;;;;;;;10.18;100.00;101157.03;6096715;23;20427;-69
2024/02/15 04:00:47;;;;;;;4.50;3.20;;;;;;;10.27;100.00;101147.75;6097630;23;20391;-68
2024/02/15 04:03:16;;;;;;;3.60;2.50;;;;;;;10.17;100.00;101155.34;6097381;23;20343;-68
2024/02/15 04:05:44;;;;;;;2.80;2.23;;;;;;;10.07;100.00;101149.41;6097402;23;20804;-69
2024/02/15 04:08:16;;;;;;;3.77;2.60;;;;;;;10.17;100.00;101149.94;6096983;23;20389;-69
2024/02/15 04:10:45;;;;;;;5.90;4.00;;;;;;;10.12;100.00;101153.19;6097218;23;20812;-69
2024/02/15 04:13:17;;;;;;;3.03;2.50;;;;;;;10.22;100.00;101156.44;6097067;23;20370;-66
2024/02/15 04:15:49;;;;;;;8.90;4.93;;;;;;;10.25;100.00;101155.25;6096876;23;20390;-68
2024/02/15 04:18:18;;;;;;;7.63;5.13;;;;;;;10.21;100.00;101159.38;6096894;23;20412;-68
2024/02/15 04:20:48;;;;;;;2.83;2.23;;;;;;;10.32;100.00;101153.41;6096817;23;20372;-67
2024/02/15 04:23:19;;;;;;;3.87;1.97;;;;;;;10.32;100.00;101145.31;6096862;23;20403;-67
2024/02/15 04:25:51;;;;;;;4.83;2.63;;;;;;;10.17;100.00;101150.78;6097662;23;20383;-67
2024/02/15 04:28:20;;;;;;;3.10;2.60;;;;;;;10.16;100.00;101148.28;6098373;23;20382;-67
2024/02/15 04:30:50;;;;;;;6.00;2.67;;;;;;;10.27;100.00;101150.47;6071671;23;20435;-66
2024/02/15 04:33:19;;;;;;;7.27;4.00;;;;;;;10.19;100.00;101154.16;6097462;23;20709;-68
2024/02/15 04:35:49;;;;;;;5.63;3.63;;;;;;;10.12;100.00;101157.78;6097430;23;20388;-65
2024/02/15 04:38:19;;;;;;;4.73;3.97;;;;;;;10.27;100.00;101153.16;6096573;23;20407;-67
2024/02/15 04:40:48;;;;;;;7.07;4.20;;;;;;;10.15;100.00;101147.41;6096728;23;20350;-66
2024/02/15 04:43:16;;;;;;;3.97;2.60;;;;;;;10.07;100.00;101147.53;6096540;23;20394;-68
2024/02/15 04:45:46;;;;;;;5.33;3.53;;;;;;;10.15;100.00;101146.59;6096490;23;20395;-68
2024/02/15 04:48:18;;;;;;;5.43;3.20;;;;;;;10.21;100.00;101148.56;6096415;23;20491;-68
2024/02/15 04:50:48;;;;;;;5.27;3.07;;;;;;;10.16;100.00;101148.28;6096601;23;20370;-66
2024/02/15 04:53:17;;;;;;;3.60;2.40;;;;;;;10.19;100.00;101153.31;6096181;23;20376;-67
2024/02/15 04:55:46;;;;;;;4.03;2.60;;;;;;;10.27;100.00;101155.88;6096606;23;20437;-67
2024/02/15 04:58:15;;;;;;;4.63;2.50;;;;;;;10.25;100.00;101152.53;6096527;23;20484;-69
2024/02/15 05:00:44;;;;;;;3.50;2.53;;;;;;;10.24;100.00;101145.44;6096244;23;20401;-69
2024/02/15 05:03:13;;;;;;;4.90;3.70;;;;;;;10.27;100.00;101153.16;6096452;23;20384;-69
2024/02/15 05:05:44;;;;;;;3.13;2.80;;;;;;;10.43;100.00;101152.91;6096429;23;20447;-69
2024/02/15 05:08:14;;;;;;;4.67;3.90;;;;;;;10.34;100.00;101156.78;6096270;23;20389;-68
2024/02/15 05:10:42;;;;;;;3.63;2.70;;;;;;;10.37;100.00;101164.50;6096556;23;20455;-68
2024/02/15 05:13:13;;;;;;;5.57;3.90;;;;;;;10.41;100.00;101160.38;6096534;23;20895;-68
2024/02/15 05:15:42;;;;;;;3.73;2.53;;;;;;;10.45;100.00;101164.38;6096827;23;20720;-68
2024/02/15 05:18:11;;;;;;;2.97;2.73;;;;;;;10.42;100.00;101165.59;6096050;23;20386;-68
2024/02/15 05:20:40;;;;;;;11.13;3.53;;;;;;;10.26;100.00;101160.44;6096010;23;20740;-68
2024/02/15 05:23:12;;;;;;;5.10;4.60;;;;;;;10.37;100.00;101161.78;6096347;23;20463;-68
2024/02/15 05:25:41;;;;;;;8.90;4.83;;;;;;;10.46;100.00;101161.47;6096388;23;20351;-69
2024/02/15 05:28:10;;;;;;;4.70;2.50;;;;;;;10.53;100.00;101156.13;6096002;23;20393;-69
2024/02/15 05:30:39;;;;;;;4.50;2.97;;;;;;;10.42;100.00;101159.34;6096499;23;20863;-69
2024/02/15 05:33:10;;;;;;;5.20;3.97;;;;;;;10.47;100.00;101156.91;6070558;23;20386;-69
2024/02/15 05:35:41;;;;;;;3.80;2.57;;;;;;;10.49;100.00;101156.72;6096318;23;20354;-69
2024/02/15 05:38:15;;;;;;;5.03;4.20;;;;;;;10.48;100.00;101161.28;6096026;23;20408;-68
2024/02/15 05:40:44;;;;;;;3.23;2.17;;;;;;;10.38;100.00;101158.06;6096376;23;20734;-69
2024/02/15 05:43:14;;;;;;;4.27;3.27;;;;;;;10.43;100.00;101155.63;6096233;23;20362;-69
2024/02/15 05:45:45;;;;;;;4.03;2.00;;;;;;;10.38;100.00;101163.47;6070771;23;20694;-68
2024/02/15 05:48:14;;;;;;;5.60;3.63;;;;;;;10.42;100.00;101159.34;6096254;23;20978;-68
2024/02/15 05:50:43;;;;;;;4.80;2.70;;;;;;;10.46;100.00;101157.91;6096416;23;20396;-70
2024/02/15 05:53:13;;;;;;;5.50;3.80;;;;;;;10.57;100.00;101156.56;6096754;23;20897;-69
2024/02/15 05:55:44;;;;;;;5.70;4.20;;;;;;;10.63;100.00;101169.31;6096788;23;20376;-69
2024/02/15 05:58:13;;;;;;;5.67;2.80;;;;;;;10.67;100.00;101174.13;6096191;23;20800;-68
2024/02/15 06:00:44;;;;;;;2.87;2.00;;;;;;;10.59;100.00;101171.59;6096479;23;20502;-69
2024/02/15 06:03:13;;;;;;;4.23;2.67;;;;;;;10.73;100.00;101169.81;6096960;23;20358;-68
2024/02/15 06:05:42;;;;;;;5.23;3.00;;;;;;;10.70;100.00;101162.91;6096346;23;20482;-68
2024/02/15 06:08:13;;;;;;;4.87;3.70;;;;;;;10.51;100.00;101163.59;6096295;23;20397;-69
2024/02/15 06:10:42;;;;;;;5.70;4.00;;;;;;;10.53;100.00;101166.09;6096663;23;20362;-69
2024/02/15 06:13:11;;;;;;;3.93;3.40;;;;;;;10.57;100.00;101162.81;6096935;23;20760;-69
2024/02/15 06:15:39;;;;;;;4.23;3.30;;;;;;;10.68;100.00;101158.72;6097061;23;20367;-68
2024/02/15 06:18:11;;;;;;;3.63;2.27;;;;;;;10.63;100.00;101161.19;6097174;23;20382;-69
2024/02/15 06:20:41;;;;;;;4.60;2.40;;;;;;;10.85;100.00;101163.66;6097186;23;20775;-68
2024/02/15 06:23:10;;;;;;;4.53;2.70;;;;;;;10.85;100.00;101160.94;6096794;23;20417;-69
2024/02/15 06:25:40;;;;;;;2.53;1.90;;;;;;;10.82;100.00;101172.19;6097711;23;20936;-68
2024/02/15 06:28:19;;;;;;;3.80;2.80;;;;;;;10.73;100.00;101167.94;6098131;23;20382;-67
2024/02/15 06:41:54;;;;;;;4.03;2.63;;;;;;;10.71;100.00;101180.81;6096026;23;20379;-68
2024/02/15 06:44:23;;;;;;;4.13;2.30;;;;;;;10.66;100.00;101183.28;6096095;23;20378;-68
2024/02/15 06:46:53;;;;;;;4.47;4.03;;;;;;;10.74;100.00;101177.75;6097172;23;20391;-69
2024/02/15 06:49:24;;;;;;;6.13;2.40;;;;;;;10.64;100.00;101185.38;6098718;23;20398;-69
2024/02/15 06:51:54;;;;;;;3.33;2.40;;;;;;;10.65;100.00;101187.00;6095417;23;20865;-68
2024/02/15 06:54:23;;;;;;;3.50;2.00;;;;;;;10.65;100.00;101191.63;6095457;23;20387;-68
2024/02/15 06:56:54;;;;;;;3.97;3.03;;;;;;;10.74;100.00;101196.69;6096052;23;20478;-67
2024/02/15 06:59:23;;;;;;;4.70;3.20;;;;;;;10.65;100.00;101199.75;6096104;23;20423;-69
2024/02/15 07:01:52;;;;;;;3.93;2.60;;;;;;;10.65;100.00;101202.44;6095036;23;20433;-68
2024/02/15 07:04:21;;;;;;;4.97;2.70;;;;;;;10.80;100.00;101201.31;6096085;23;20350;-68
2024/02/15 07:06:51;;;;;;;2.83;2.37;;;;;;;10.76;100.00;101205.44;6096047;23;20896;-69
2024/02/15 07:09:22;;;;;;;4.40;2.80;;;;;;;10.81;100.00;101208.41;6095853;23;20408;-69
2024/02/15 07:11:52;;;;;;;4.67;2.60;;;;;;;10.82;100.00;101204.66;6096190;23;20927;-68
2024/02/15 07:14:21;;;;;;;6.77;3.50;;;;;;;10.86;100.00;101203.22;6094916;23;20390;-66
2024/02/15 07:16:51;;;;;;;5.83;2.70;;;;;;;10.91;100.00;101202.63;6097141;23;20805;-67
2024/02/15 07:19:20;;;;;;;10.17;4.27;;;;;;;11.08;100.00;101214.03;6097766;23;20866;-68
2024/02/15 07:21:50;;;;;;;4.63;2.90;;;;;;;10.99;100.00;101205.19;6097175;23;20397;-67
2024/02/15 07:24:20;;;;;;;5.73;3.63;;;;;;;10.95;100.00;101203.91;6098080;23;20350;-68
2024/02/15 07:26:52;;;;;;;3.40;2.80;;;;;;;10.97;100.00;101206.44;6097609;23;20417;-68
2024/02/15 07:29:23;;;;;;;2.77;2.43;;;;;;;11.01;100.00;101202.28;6097724;23;20415;-68
2024/02/15 07:31:52;;;;;;;3.80;2.57;;;;;;;11.10;100.00;101198.41;6097314;23;20370;-68
2024/02/15 07:34:21;;;;;;;3.80;2.17;;;;;;;11.01;100.00;101207.72;6097268;23;20404;-68
2024/02/15 07:36:51;;;;;;;3.47;1.90;;;;;;;11.11;100.00;101211.75;6097318;23;20350;-68
2024/02/15 07:39:24;;;;;;;5.40;3.73;;;;;;;11.24;100.00;101211.00;6096679;23;20411;-69
2024/02/15 07:41:54;;;;;;;4.30;3.30;;;;;;;11.11;100.00;101214.47;6097085;23;20390;-68
2024/02/15 07:44:24;;;;;;;4.70;2.40;;;;;;;11.13;100.00;101209.69;6097425;23;20392;-69
2024/02/15 07:46:57;;;;;;;4.37;3.63;;;;;;;11.16;100.00;101205.75;6097347;23;20384;-67
2024/02/15 07:49:26;;;;;;;4.50;1.97;;;;;;;11.08;100.00;101204.03;6096960;23;20939;-68
2024/02/15 07:51:55;;;;;;;2.43;1.87;;;;;;;11.15;100.00;101209.47;6097327;23;20698;-68
2024/02/15 07:54:25;;;;;;;4.73;2.70;;;;;;;11.35;100.00;101210.44;6096713;23;20366;-69
2024/02/15 07:56:54;;;;;;;3.47;2.27;;;;;;;11.32;100.00;101216.28;6096886;23;20351;-67
2024/02/15 07:59:24;;;;;;;5.30;3.73;;;;;;;11.67;100.00;101207.06;6097181;23;20382;-69
2024/02/15 08:01:53;;;;;;;3.93;2.23;;;;;;;11.71;100.00;101211.03;6097766;23;20481;-71
2024/02/15 08:04:23;;;;;;;5.53;3.90;;;;;;;11.72;100.00;101210.03;6097410;23;20702;-68
2024/02/15 08:06:53;;;;;;;4.67;3.80;;;;;;;11.85;100.00;101220.13;6097246;23;20712;-68
2024/02/15 08:09:24;;;;;;;5.07;3.00;;;;;;;12.02;100.00;101217.88;6096865;23;20403;-67
2024/02/15 08:11:55;;;;;;;2.87;2.40;;;;;;;11.96;100.00;101207.81;6097021;23;20410;-67
2024/02/15 08:14:25;;;;;;;6.33;3.00;;;;;;;11.97;100.00;101214.91;6096554;23;20358;-68
2024/02/15 08:16:55;;;;;;;8.43;5.00;;;;;;;12.19;100.00;101214.59;6096897;23;20351;-66
2024/02/15 08:19:24;;;;;;;5.17;3.37;;;;;;;12.23;100.00;101212.31;6096647;23;20415;-68
2024/02/15 08:21:53;;;;;;;7.30;3.70;;;;;;;12.15;100.00;101212.50;6096977;23;20836;-68
2024/02/15 08:24:22;;;;;;;12.37;7.60;;;;;;;12.28;100.00;101211.69;6097008;23;20383;-70
2024/02/15 08:26:52;;;;;;;10.70;6.20;;;;;;;12.30;100.00;101215.84;6096901;23;20370;-67
2024/02/15 08:29:21;;;;;;;6.13;3.00;;;;;;;12.19;100.00;101219.19;6096214;23;20414;-68
2024/02/15 08:31:51;;;;;;;5.80;3.33;;;;;;;12.42;100.00;101229.66;6096644;23;20668;-67
2024/02/15 08:34:20;;;;;;;4.33;3.07;;;;;;;12.13;100.00;101220.84;6097364;23;20358;-68
2024/02/15 08:36:49;;;;;;;3.20;1.60;;;;;;;12.13;100.00;101214.56;6096680;23;20475;-66
2024/02/15 08:39:18;;;;;;;5.57;4.47;;;;;;;12.44;100.00;101227.59;6096351;23;20390;-68
2024/02/15 08:41:47;;;;;;;3.27;2.80;;;;;;;12.27;100.00;101221.69;6096369;23;20427;-68
2024/02/15 08:44:19;;;;;;;3.40;2.50;;;;;;;12.37;100.00;101222.13;6096677;23;20398;-69
2024/02/15 08:46:48;;;;;;;4.70;2.63;;;;;;;12.06;100.00;101225.38;6096689;23;20588;-68
2024/02/15 08:49:22;;;;;;;3.43;2.40;;;;;;;12.01;100.00;101221.59;6096882;23;20423;-69
2024/02/15 08:51:50;;;;;;;3.00;2.50;;;;;;;12.16;100.00;101214.16;6097323;23;20396;-69
2024/02/15 08:54:21;;;;;;;3.13;2.50;;;;;;;12.12;100.00;101212.88;6096897;23;20463;-68
2024/02/15 08:56:51;;;;;;;2.37;2.17;;;;;;;12.19;100.00;101214.59;6096595;23;20437;-68
2024/02/15 08:59:21;;;;;;;4.27;2.70;;;;;;;12.26;100.00;101219.19;6096343;23;20506;-68
2024/02/15 09:01:51;;;;;;;3.17;2.40;;;;;;;12.43;100.00;101221.31;6096507;23;20433;-68
2024/02/15 09:04:23;;;;;;;2.63;2.13;;;;;;;12.54;100.00;101222.56;6096948;23;20377;-68
2024/02/15 09:06:52;;;;;;;3.30;2.47;;;;;;;12.55;100.00;101229.66;6096500;23;20684;-69
2024/02/15 09:09:21;;;;;;;4.00;2.30;;;;;;;12.51;100.00;101228.41;6096808;23;20415;-69
2024/02/15 09:11:49;;;;;;;7.83;3.20;;;;;;;12.50;100.00;101226.75;6096820;23;20421;-67
2024/02/15 09:14:18;;;;;;;2.87;2.50;;;;;;;12.55;100.00;101224.25;6096800;23;20367;-68
2024/02/15 09:16:47;;;;;;;5.37;2.47;;;;;;;12.62;100.00;101225.09;6096894;23;20395;-68
2024/02/15 09:19:16;;;;;;;3.20;2.00;;;;;;;12.62;100.00;101220.50;6096381;23;20941;-66
2024/02/15 09:21:47;;;;;;;3.53;2.20;;;;;;;12.75;100.00;101219.66;6096098;23;20439;-68
2024/02/15 09:24:16;;;;;;;2.47;1.70;;;;;;;13.04;100.00;101224.69;6096560;23;20697;-68
2024/02/15 09:26:45;;;;;;;4.80;2.30;;;;;;;13.03;100.00;101233.03;6096359;23;20374;-68
2024/02/15 09:29:14;;;;;;;3.00;2.20;;;;;;;13.04;100.00;101226.56;6096169;23;20458;-68
2024/02/15 09:31:43;;;;;;;3.47;2.37;;;;;;;13.03;100.00;101225.72;6096282;23;20369;-68
2024/02/15 09:34:13;;;;;;;3.53;2.40;;;;;;;12.76;100.00;101225.94;6096346;23;20458;-68
2024/02/15 09:36:45;;;;;;;2.77;2.53;;;;;;;12.74;100.00;101228.00;6096058;23;20886;-69
2024/02/15 09:39:15;;;;;;;2.73;2.43;;;;;;;12.68;100.00;101237.00;6095617;23;20408;-69
2024/02/15 09:41:44;;;;;;;3.80;2.07;;;;;;;12.64;100.00;101240.13;6096685;23;20396;-69
2024/02/15 09:44:13;;;;;;;4.03;2.80;;;;;;;12.40;100.00;101235.28;6096629;23;20374;-68
2024/02/15 09:46:45;;;;;;;2.13;1.67;;;;;;;12.45;100.00;101238.22;6096281;23;20397;-69
2024/02/15 09:49:15;;;;;;;3.80;2.70;;;;;;;12.51;100.00;101233.84;6096482;23;20398;-69
2024/02/15 09:51:47;;;;;;;3.63;2.03;;;;;;;12.42;100.00;101238.63;6096450;23;20912;-68
2024/02/15 09:54:22;;;;;;;1.90;1.73;;;;;;;12.66;100.00;101248.06;6096328;23;20356;-68
2024/02/15 09:56:53;;;;;;;5.17;4.13;;;;;;;12.61;100.00;101251.41;6096693;23;20350;-68
2024/02/15 09:59:22;;;;;;;4.03;2.67;;;;;;;12.58;100.00;101248.28;6096150;23;20409;-68
2024/02/15 10:01:52;;;;;;;3.23;1.93;;;;;;;12.72;100.00;101249.13;6096138;23;20524;-68
2024/02/15 10:04:21;;;;;;;3.47;3.17;;;;;;;13.01;100.00;101252.28;6096793;23;20367;-66
2024/02/15 10:06:49;;;;;;;3.33;2.00;;;;;;;12.96;100.00;101253.94;6070938;23;20390;-67
2024/02/15 10:09:30;;;;;;;4.33;3.97;;;;;;;12.89;100.00;101253.94;6096038;23;20554;-68
2024/02/15 10:12:00;;;;;;;2.13;1.77;;;;;;;12.94;100.00;101258.75;6096755;23;20833;-69
2024/02/15 10:14:31;;;;;;;2.43;1.50;;;;;;;12.75;100.00;101246.00;6096140;23;20437;-69
2024/02/15 10:17:09;;;;;;;2.57;1.83;;;;;;;13.00;100.00;101247.03;6096197;23;20376;-69
2024/02/15 10:19:38;;;;;;;3.80;2.00;;;;;;;13.21;100.00;101241.44;6095828;23;20408;-68
2024/02/15 10:22:08;;;;;;;2.90;1.97;;;;;;;13.49;100.00;101241.16;6070505;23;20954;-68
2024/02/15 10:24:39;;;;;;;2.47;1.80;;;;;;;13.91;100.00;101247.91;6096121;23;20350;-69
2024/02/15 10:27:10;;;;;;;2.90;2.00;;;;;;;13.98;100.00;101256.06;6102350;23;20362;-67
2024/02/15 10:29:40;;;;;;;3.10;2.33;;;;;;;13.85;100.00;101248.78;6099094;23;20408;-69
2024/02/15 10:32:10;;;;;;;3.13;2.17;;;;;;;13.83;100.00;101245.44;6098483;23;20358;-69
2024/02/15 10:34:45;;;;;;;3.33;1.57;;;;;;;13.93;100.00;101245.84;6098166;23;20998;-68
2024/02/15 10:37:17;;;;;;;3.27;2.20;;;;;;;13.92;100.00;101247.72;6096309;23;20459;-68
2024/02/15 10:39:47;;;;;;;3.03;1.97;;;;;;;13.95;100.00;101243.72;6095748;23;20382;-69
2024/02/15 10:42:18;;;;;;;3.70;1.90;;;;;;;13.87;100.00;101241.25;6095979;23;20397;-69
2024/02/15 10:44:48;;;;;;;3.77;3.27;;;;;;;14.22;100.00;101242.56;6096101;23;20375;-70
2024/02/15 10:47:19;;;;;;;3.70;1.90;;;;;;;14.01;100.00;101242.84;6096279;23;20463;-68
2024/02/15 10:49:48;;;;;;;3.07;2.07;;;;;;;14.21;100.00;101240.03;6095740;23;20378;-66
2024/02/15 10:52:21;;;;;;;3.07;2.77;;;;;;;14.65;100.00;101250.06;6097916;23;20415;-68
2024/02/15 10:54:58;;;;;;;1.53;1.37;;;;;;;14.92;100.00;101239.78;6098142;23;20380;-68
2024/02/15 10:57:32;;;;;;;1.67;1.37;;;;;;;14.99;100.00;101241.41;6097688;23;20471;-67
2024/02/15 11:00:10;;;;;;;1.77;1.33;;;;;;;14.77;100.00;101237.38;6097987;23;20442;-68
2024/02/15 11:02:43;;;;;;;2.28;1.40;;;;;;;14.70;100.00;101242.06;6096847;23;20470;-69
2024/02/15 11:05:14;;;;;;;1.30;0.90;;;;;;;14.97;100.00;101250.84;6098086;23;20152;-67
2024/02/15 11:07:43;;;;;;;1.60;1.20;;;;;;;14.83;100.00;101246.56;6098566;23;20414;-68
2024/02/15 11:10:16;;;;;;;2.13;1.60;;;;;;;14.57;100.00;101236.72;6100665;23;20477;-69
2024/02/15 11:12:47;;;;;;;3.43;1.77;;;;;;;14.65;100.00;101234.56;6101900;23;20372;-69
2024/02/15 11:15:54;;;;;;;2.97;1.70;;;;;;;14.94;100.00;101232.25;6076629;23;20849;-68
2024/02/15 11:18:51;;;;;;;2.13;0.90;;;;;;;15.02;100.00;101235.50;6099793;23;20413;-67
2024/02/15 11:21:58;;;;;;;2.47;1.20;;;;;;;14.90;100.00;101223.69;6082381;23;20806;-69
2024/02/15 11:24:28;;;;;;;2.33;1.53;;;;;;;14.91;100.00;101224.50;6099823;23;20347;-68
2024/02/15 11:27:03;;;;;;;1.80;1.43;;;;;;;14.69;100.00;101224.88;6099380;23;20366;-67
2024/02/15 11:29:51;;;;;;;6.27;1.30;;;;;;;14.33;100.00;101220.06;6099748;23;20382;-69
2024/02/15 11:32:39;;;;;;;3.53;1.23;;;;;;;14.61;100.00;101225.16;6100087;23;20372;-68
2024/02/15 11:35:13;;;;;;;2.27;1.27;;;;;;;14.68;100.00;101225.94;6099375;23;20350;-67
2024/02/15 11:37:53;;;;;;;2.00;1.33;;;;;;;14.75;100.00;101228.63;6099392;23;20934;-66
2024/02/15 11:40:24;;;;;;;2.07;1.20;;;;;;;14.68;100.00;101227.81;6099227;23;20434;-67
2024/02/15 11:42:57;;;;;;;1.93;1.70;;;;;;;14.54;100.00;101231.69;6097951;23;20397;-69
2024/02/15 11:45:26;;;;;;;1.87;1.30;;;;;;;14.45;100.00;101227.56;6097398;23;20351;-68